createdAt,value
2023-01-27T00:04:01.806Z,74.25
2023-01-27T00:09:32.844Z,74.30
2023-01-27T00:15:04.316Z,74.68
2023-01-27T00:20:53.864Z,74.45
2023-01-27T00:43:11.674Z,74.71
2023-01-27T00:48:42.677Z,74.56
2023-01-27T00:54:14.551Z,74.34
2023-01-27T00:59:45.452Z,74.43
2023-01-27T01:05:16.444Z,74.65
2023-01-27T01:10:47.495Z,74.67
2023-01-27T01:16:19.666Z,74.53
2023-01-27T01:21:50.887Z,74.59
2023-01-27T01:27:22.706Z,74.46
2023-01-27T01:32:54.611Z,74.58
2023-01-27T01:38:25.710Z,74.61
2023-01-27T01:43:56.794Z,74.78
2023-01-27T01:49:35.408Z,74.65
2023-01-27T01:55:06.679Z,74.86
2023-01-27T02:00:37.824Z,74.70
2023-01-27T02:06:09.580Z,74.66
2023-01-27T02:11:40.701Z,74.71
2023-01-27T02:17:13.107Z,74.65
2023-01-27T02:22:53.135Z,74.67
2023-01-27T02:28:23.996Z,74.56
2023-01-27T02:33:57.381Z,74.56
2023-01-27T02:39:31.560Z,74.56
2023-01-27T02:45:02.649Z,74.82
2023-01-27T02:50:34.061Z,75.01
2023-01-27T02:56:07.214Z,74.42
2023-01-27T03:01:38.354Z,74.59
2023-01-27T03:07:09.667Z,74.70
2023-01-27T03:12:41.116Z,74.97
2023-01-27T03:18:16.193Z,74.70
2023-01-27T03:23:49.273Z,74.83
2023-01-27T03:30:04.069Z,74.89
2023-01-27T03:35:39.198Z,74.85
2023-01-27T03:41:30.767Z,74.87
2023-01-27T03:47:02.033Z,74.42
2023-01-27T03:52:33.103Z,74.75
2023-01-27T03:58:24.823Z,74.64
2023-01-27T04:04:14.276Z,74.91
2023-01-27T04:09:45.203Z,74.51
2023-01-27T04:15:17.639Z,74.74
2023-01-27T04:20:50.214Z,74.57
2023-01-27T04:26:21.353Z,74.51
2023-01-27T04:31:52.508Z,74.68
2023-01-27T04:37:23.704Z,74.30
2023-01-27T04:42:55.044Z,74.47
2023-01-27T04:48:26.185Z,74.48
2023-01-27T04:53:57.432Z,74.04
2023-01-27T04:59:28.633Z,74.15
2023-01-27T05:05:00.225Z,73.91
2023-01-27T05:10:31.266Z,73.93
2023-01-27T05:16:06.444Z,73.97
2023-01-27T05:21:37.483Z,73.72
2023-01-27T05:27:08.633Z,73.97
2023-01-27T05:32:40.217Z,73.70
2023-01-27T05:38:11.303Z,73.63
2023-01-27T05:43:43.492Z,73.65
2023-01-27T05:49:14.453Z,73.88
2023-01-27T05:54:45.671Z,73.72
2023-01-27T06:00:17.120Z,73.78
2023-01-27T06:05:57.978Z,73.63
2023-01-27T06:11:29.419Z,73.66
2023-01-27T06:17:01.168Z,73.63
2023-01-27T06:22:31.977Z,73.63
2023-01-27T06:28:03.036Z,73.77
2023-01-27T06:33:33.926Z,73.73
2023-01-27T06:39:05.132Z,73.61
2023-01-27T06:44:36.246Z,73.63
2023-01-27T06:50:08.036Z,73.21
2023-01-27T06:55:42.291Z,73.23
2023-01-27T07:01:13.505Z,73.68
2023-01-27T07:06:44.627Z,73.24
2023-01-27T07:12:15.379Z,73.46
2023-01-27T07:17:46.246Z,73.71
2023-01-27T07:23:17.350Z,73.31
2023-01-27T07:28:48.227Z,73.37
2023-01-27T07:34:19.445Z,73.15
2023-01-27T07:39:50.502Z,73.27
2023-01-27T07:45:21.470Z,73.66
2023-01-27T07:50:52.396Z,73.34
2023-01-27T07:56:23.517Z,73.39
2023-01-27T08:01:54.616Z,73.16
2023-01-27T08:07:25.805Z,72.98
2023-01-27T08:12:56.875Z,73.38
2023-01-27T08:18:28.650Z,73.33
2023-01-27T08:24:00.516Z,72.91
2023-01-27T08:29:33.441Z,72.80
2023-01-27T08:35:04.490Z,73.16
2023-01-27T08:40:35.452Z,72.93
2023-01-27T08:46:06.827Z,73.23
2023-01-27T08:52:08.955Z,73.18
2023-01-27T08:57:58.678Z,73.18
2023-01-27T09:03:30.699Z,73.21
2023-01-27T09:09:12.252Z,72.90
2023-01-27T09:14:43.429Z,73.17
2023-01-27T09:20:15.075Z,73.10
2023-01-27T09:25:46.285Z,73.31
2023-01-27T09:31:17.169Z,73.14
2023-01-27T09:36:49.295Z,72.68
2023-01-27T09:42:51.780Z,72.73
2023-01-27T09:48:33.953Z,72.81
2023-01-27T09:54:11.190Z,73.09
2023-01-27T10:00:02.193Z,73.22
2023-01-27T10:05:52.751Z,73.01
2023-01-27T10:11:42.006Z,73.07
2023-01-27T10:17:13.295Z,73.17
2023-01-27T10:22:57.694Z,72.45
2023-01-27T10:28:28.890Z,73.11
2023-01-27T10:34:03.468Z,72.67
2023-01-27T10:39:40.143Z,72.79
2023-01-27T10:45:14.141Z,73.07
2023-01-27T10:51:05.223Z,72.40
2023-01-27T10:56:44.604Z,72.93
2023-01-27T11:02:24.606Z,72.66
2023-01-27T11:07:59.710Z,72.70
2023-01-27T11:13:31.286Z,72.47
2023-01-27T11:19:05.865Z,72.48
2023-01-27T11:24:41.927Z,72.54
2023-01-27T11:30:18.008Z,72.71
2023-01-27T11:35:49.324Z,72.59
2023-01-27T11:41:20.710Z,73.05
2023-01-27T11:46:52.077Z,73.10
2023-01-27T11:52:27.223Z,72.61
2023-01-27T11:58:02.473Z,72.96
2023-01-27T12:03:42.708Z,72.64
2023-01-27T12:09:30.039Z,73.02
2023-01-27T12:15:03.325Z,72.52
2023-01-27T12:20:36.018Z,72.55
2023-01-27T12:26:07.760Z,72.69
2023-01-27T12:38:24.784Z,72.79
2023-01-27T12:44:02.135Z,73.20
2023-01-27T12:49:35.560Z,72.38
2023-01-27T12:55:13.686Z,72.50
2023-01-27T13:00:45.914Z,73.06
2023-01-27T13:06:17.382Z,72.60
2023-01-27T13:11:48.491Z,72.40
2023-01-27T13:17:30.412Z,72.48
2023-01-27T13:23:02.689Z,72.94
2023-01-27T13:28:52.906Z,72.57
2023-01-27T13:34:27.194Z,72.43
2023-01-27T13:40:03.915Z,72.43
2023-01-27T13:45:40.556Z,73.00
2023-01-27T13:51:12.569Z,72.95
2023-01-27T13:56:43.320Z,72.58
2023-01-27T14:02:17.341Z,72.61
2023-01-27T14:07:49.095Z,72.59
2023-01-27T14:13:19.969Z,72.40
2023-01-27T14:19:17.401Z,72.34
2023-01-27T14:24:53.261Z,72.52
2023-01-27T14:30:26.218Z,72.25
2023-01-27T14:35:58.744Z,72.35
2023-01-27T14:41:56.176Z,72.33
2023-01-27T14:47:31.042Z,72.45
2023-01-27T14:53:01.939Z,72.16
2023-01-27T14:58:47.598Z,72.42
2023-01-27T15:04:37.740Z,72.42
2023-01-27T15:10:17.494Z,72.75
2023-01-27T15:15:48.387Z,72.77
2023-01-27T15:21:21.992Z,72.19
2023-01-27T15:26:53.041Z,72.51
2023-01-27T15:32:28.119Z,72.35
2023-01-27T15:38:00.735Z,72.67
2023-01-27T15:43:32.332Z,72.24
2023-01-27T15:49:05.315Z,72.54
2023-01-27T15:54:36.429Z,72.13
2023-01-27T16:00:08.317Z,72.43
2023-01-27T16:05:44.731Z,72.54
2023-01-27T16:11:21.912Z,72.34
2023-01-27T16:16:52.792Z,72.73
2023-01-27T16:22:24.128Z,72.29
2023-01-27T16:28:06.304Z,72.27
2023-01-27T16:33:38.358Z,72.05
2023-01-27T16:39:18.550Z,72.14
2023-01-27T16:44:50.323Z,72.48
2023-01-27T16:50:47.549Z,72.24
2023-01-27T16:56:28.862Z,72.39
2023-01-27T17:02:00.864Z,72.56
2023-01-27T17:07:32.676Z,72.30
2023-01-27T17:13:03.737Z,72.43
2023-01-27T17:18:50.884Z,72.00
2023-01-27T17:24:29.492Z,72.42
2023-01-27T17:30:12.122Z,72.08
2023-01-27T17:35:44.359Z,72.12
2023-01-27T17:41:29.413Z,72.03
2023-01-27T17:47:01.426Z,71.81
2023-01-27T17:52:32.346Z,72.42
2023-01-27T17:58:04.694Z,71.89
2023-01-27T18:03:35.773Z,72.56
2023-01-27T18:09:17.494Z,72.20
2023-01-27T18:14:48.352Z,72.08
2023-01-27T18:20:27.480Z,72.08
2023-01-27T18:26:07.904Z,72.25
2023-01-27T18:31:44.920Z,72.52
2023-01-27T18:37:24.920Z,72.04
2023-01-27T18:42:56.390Z,71.81
2023-01-27T18:48:28.012Z,72.36
2023-01-27T18:53:58.959Z,72.34
2023-01-27T18:59:29.934Z,72.23
2023-01-27T19:05:00.824Z,72.27
2023-01-27T19:10:32.821Z,72.33
2023-01-27T19:16:03.944Z,72.33
2023-01-27T19:21:35.008Z,71.95
2023-01-27T19:27:06.131Z,71.80
2023-01-27T19:32:37.235Z,72.30
2023-01-27T19:38:09.930Z,71.94
2023-01-27T19:43:42.148Z,72.22
2023-01-27T19:49:19.442Z,71.70
2023-01-27T19:54:50.617Z,72.44
2023-01-27T20:00:32.854Z,72.16
2023-01-27T20:06:03.975Z,72.13
2023-01-27T20:11:36.384Z,72.12
2023-01-27T20:17:07.336Z,72.04
2023-01-27T20:22:38.574Z,72.14
2023-01-27T20:28:09.915Z,72.08
2023-01-27T20:33:41.210Z,72.58
2023-01-27T20:39:12.760Z,72.58
2023-01-27T20:44:44.520Z,72.53
2023-01-27T20:50:16.071Z,71.82
2023-01-27T20:55:47.605Z,71.80
2023-01-27T21:01:19.654Z,72.24
2023-01-27T21:06:51.446Z,71.81
2023-01-27T21:12:22.774Z,72.48
2023-01-27T21:17:55.004Z,72.31
2023-01-27T21:23:28.014Z,71.75
2023-01-27T21:28:59.361Z,72.40
2023-01-27T21:34:30.413Z,72.43
2023-01-27T21:40:01.442Z,72.02
2023-01-27T21:45:32.292Z,72.35
2023-01-27T21:51:05.979Z,72.63
2023-01-27T21:56:36.958Z,71.96
2023-01-27T22:02:09.517Z,71.97
2023-01-27T22:07:42.090Z,71.85
2023-01-27T22:13:14.439Z,72.04
2023-01-27T22:18:45.622Z,71.96
2023-01-27T22:24:16.547Z,72.48
2023-01-27T22:29:47.595Z,71.98
2023-01-27T22:35:18.903Z,72.12
2023-01-27T22:40:55.233Z,72.00
2023-01-27T22:46:26.664Z,72.03
2023-01-27T22:51:57.800Z,72.03
2023-01-27T22:57:31.494Z,71.93
2023-01-27T23:03:02.510Z,72.42
2023-01-27T23:08:33.923Z,72.01
2023-01-27T23:14:05.214Z,71.95
2023-01-27T23:19:36.709Z,72.52
2023-01-27T23:25:08.244Z,72.17
2023-01-27T23:30:42.592Z,72.05
2023-01-27T23:36:13.768Z,72.45
2023-01-27T23:41:45.134Z,72.07
2023-01-27T23:47:16.584Z,72.00
2023-01-27T23:52:47.642Z,71.98
2023-01-27T23:58:19.053Z,71.96
